モスクワ/シェレメーチエヴォ の空港の天気 - METARとTAF

シェレメーチエヴォ国際空港(モスクワ) ( UUEE / SVO ) - ロシア モスクワ
飛行場実況気象(Metar)
観測時間05/28 13:30 MSK (05/28 10:30 UTC)
風向・風速西南西 7m/s
視程10km以上
天気現象
全天の4割程度の雲 雲底高度 850m
気温14℃
湿度67%
気圧999hPa
METARUUEE 281030Z 24007MPS 200V280 9999 SCT028CB 14/08 Q0999 R24L/CLRD62 R24C/CLRD62 NOSIG
過去の天気等 Google飛行場航空写真 Wunderground天気予報

過去48時間のMETAR

飛行場予報(TAF)
発表時間: 5/28 10:52 MSK (5/28 07:52 UTC)
予報対象時間: 28日12時 MSK ~ 29日12時 MSK
風向・風速西南西 5m/s
視程10km以上
全天の8割程度の雲 雲底高度 490m
28日12時 MSK ~ 28日21時 MSK に一時的に
風向・風速西南西 9m/s 瞬間風速 15m/s
視程2900m
天気現象弱い雷雨
少しの雲 雲底高度 180m
全天の8割程度の積乱雲 雲底高度 370m
TAF UUEE 280752Z 2809/2909 25005MPS 9999 BKN016 TX14/2812Z TN07/2902Z
TEMPO 2809/2818 24009G15MPS 2900 -TSRA FEW006 BKN012CB